sensor_id;sensor_type;location;lat;lon;timestamp;temperature;humidity
57843;DHT22;43673;51.058;3.734;2022-07-23T00:00:12;17.90;99.90
57843;DHT22;43673;51.058;3.734;2022-07-23T00:02:37;18.00;99.90
57843;DHT22;43673;51.058;3.734;2022-07-23T00:05:03;18.00;99.90
57843;DHT22;43673;51.058;3.734;2022-07-23T00:07:29;17.90;99.90
57843;DHT22;43673;51.058;3.734;2022-07-23T00:09:55;17.90;99.90
57843;DHT22;43673;51.058;3.734;2022-07-23T00:12:21;17.90;99.90
57843;DHT22;43673;51.058;3.734;2022-07-23T00:14:47;17.80;99.90
57843;DHT22;43673;51.058;3.734;2022-07-23T00:17:13;17.90;99.90
57843;DHT22;43673;51.058;3.734;2022-07-23T00:19:39;18.00;99.90
57843;DHT22;43673;51.058;3.734;2022-07-23T00:22:05;17.90;99.90
57843;DHT22;43673;51.058;3.734;2022-07-23T00:24:30;17.70;99.90
57843;DHT22;43673;51.058;3.734;2022-07-23T00:26:56;17.90;99.90
57843;DHT22;43673;51.058;3.734;2022-07-23T00:29:22;17.80;99.90
57843;DHT22;43673;51.058;3.734;2022-07-23T00:31:48;17.80;99.90
57843;DHT22;43673;51.058;3.734;2022-07-23T00:34:14;17.80;99.90
57843;DHT22;43673;51.058;3.734;2022-07-23T00:36:42;17.70;99.90
57843;DHT22;43673;51.058;3.734;2022-07-23T00:39:08;17.70;99.90
57843;DHT22;43673;51.058;3.734;2022-07-23T00:41:34;17.70;99.90
57843;DHT22;43673;51.058;3.734;2022-07-23T00:44:21;17.70;99.90
57843;DHT22;43673;51.058;3.734;2022-07-23T00:46:52;17.50;99.90
57843;DHT22;43673;51.058;3.734;2022-07-23T00:49:23;17.50;99.90
57843;DHT22;43673;51.058;3.734;2022-07-23T00:51:50;17.50;99.90
57843;DHT22;43673;51.058;3.734;2022-07-23T00:54:22;17.40;99.90
57843;DHT22;43673;51.058;3.734;2022-07-23T00:56:49;17.40;99.90
57843;DHT22;43673;51.058;3.734;2022-07-23T00:59:15;17.40;99.90
57843;DHT22;43673;51.058;3.734;2022-07-23T01:01:41;17.40;99.90
57843;DHT22;43673;51.058;3.734;2022-07-23T01:04:07;17.40;99.90
57843;DHT22;43673;51.058;3.734;2022-07-23T01:06:36;17.40;99.90
57843;DHT22;43673;51.058;3.734;2022-07-23T01:09:05;17.40;99.90
57843;DHT22;43673;51.058;3.734;2022-07-23T01:11:34;17.40;99.90
57843;DHT22;43673;51.058;3.734;2022-07-23T01:14:08;17.40;99.90
57843;DHT22;43673;51.058;3.734;2022-07-23T01:16:34;17.40;99.90
57843;DHT22;43673;51.058;3.734;2022-07-23T01:18:59;17.40;99.90
57843;DHT22;43673;51.058;3.734;2022-07-23T01:21:25;17.40;99.90
57843;DHT22;43673;51.058;3.734;2022-07-23T01:23:51;17.30;99.90
57843;DHT22;43673;51.058;3.734;2022-07-23T01:26:16;17.30;99.90
57843;DHT22;43673;51.058;3.734;2022-07-23T01:28:42;17.20;99.90
57843;DHT22;43673;51.058;3.734;2022-07-23T01:31:08;17.20;99.90
57843;DHT22;43673;51.058;3.734;2022-07-23T01:33:34;17.20;99.90
57843;DHT22;43673;51.058;3.734;2022-07-23T01:35:59;17.20;99.90
57843;DHT22;43673;51.058;3.734;2022-07-23T01:38:25;17.20;99.90
57843;DHT22;43673;51.058;3.734;2022-07-23T01:40:50;17.20;99.90
57843;DHT22;43673;51.058;3.734;2022-07-23T01:43:16;17.20;99.90
57843;DHT22;43673;51.058;3.734;2022-07-23T01:45:42;17.10;99.90
57843;DHT22;43673;51.058;3.734;2022-07-23T01:48:09;17.10;99.90
57843;DHT22;43673;51.058;3.734;2022-07-23T01:50:35;17.10;99.90
57843;DHT22;43673;51.058;3.734;2022-07-23T01:53:01;17.00;99.90
57843;DHT22;43673;51.058;3.734;2022-07-23T01:55:26;17.00;99.90
57843;DHT22;43673;51.058;3.734;2022-07-23T01:57:52;17.00;99.90
57843;DHT22;43673;51.058;3.734;2022-07-23T02:00:18;17.10;99.90
57843;DHT22;43673;51.058;3.734;2022-07-23T02:02:43;17.00;99.90
57843;DHT22;43673;51.058;3.734;2022-07-23T02:05:09;16.90;99.90
57843;DHT22;43673;51.058;3.734;2022-07-23T02:07:34;16.80;99.90
57843;DHT22;43673;51.058;3.734;2022-07-23T02:10:00;16.80;99.90
57843;DHT22;43673;51.058;3.734;2022-07-23T02:12:26;16.80;99.90
57843;DHT22;43673;51.058;3.734;2022-07-23T02:14:51;16.80;99.90
57843;DHT22;43673;51.058;3.734;2022-07-23T02:17:17;16.80;99.90
57843;DHT22;43673;51.058;3.734;2022-07-23T02:19:42;16.90;99.90
57843;DHT22;43673;51.058;3.734;2022-07-23T02:22:08;17.00;99.90
57843;DHT22;43673;51.058;3.734;2022-07-23T02:24:34;17.00;99.90
57843;DHT22;43673;51.058;3.734;2022-07-23T02:26:59;17.00;99.90
57843;DHT22;43673;51.058;3.734;2022-07-23T02:29:25;17.00;99.90
57843;DHT22;43673;51.058;3.734;2022-07-23T02:31:50;16.90;99.90
57843;DHT22;43673;51.058;3.734;2022-07-23T02:34:16;16.80;99.90
57843;DHT22;43673;51.058;3.734;2022-07-23T02:36:42;16.90;99.90
57843;DHT22;43673;51.058;3.734;2022-07-23T02:39:07;16.80;99.90
57843;DHT22;43673;51.058;3.734;2022-07-23T02:41:33;16.80;99.90
57843;DHT22;43673;51.058;3.734;2022-07-23T02:43:59;16.80;99.90
57843;DHT22;43673;51.058;3.734;2022-07-23T02:46:24;16.80;99.90
57843;DHT22;43673;51.058;3.734;2022-07-23T02:48:50;16.80;99.90
57843;DHT22;43673;51.058;3.734;2022-07-23T02:51:15;16.80;99.90
57843;DHT22;43673;51.058;3.734;2022-07-23T02:53:41;16.80;99.90
57843;DHT22;43673;51.058;3.734;2022-07-23T02:56:07;16.80;99.90
57843;DHT22;43673;51.058;3.734;2022-07-23T02:58:33;16.80;99.90
57843;DHT22;43673;51.058;3.734;2022-07-23T03:00:58;16.80;99.90
57843;DHT22;43673;51.058;3.734;2022-07-23T03:03:24;16.70;99.90
57843;DHT22;43673;51.058;3.734;2022-07-23T03:05:50;16.70;99.90
57843;DHT22;43673;51.058;3.734;2022-07-23T03:08:15;16.70;99.90
57843;DHT22;43673;51.058;3.734;2022-07-23T03:10:41;16.70;99.90
57843;DHT22;43673;51.058;3.734;2022-07-23T03:13:06;16.70;99.90
57843;DHT22;43673;51.058;3.734;2022-07-23T03:15:32;16.70;99.90
57843;DHT22;43673;51.058;3.734;2022-07-23T03:17:58;16.70;99.90
57843;DHT22;43673;51.058;3.734;2022-07-23T03:20:23;16.70;99.90
57843;DHT22;43673;51.058;3.734;2022-07-23T03:22:49;16.70;99.90
57843;DHT22;43673;51.058;3.734;2022-07-23T03:25:14;16.70;99.90
57843;DHT22;43673;51.058;3.734;2022-07-23T03:27:40;16.70;99.90
57843;DHT22;43673;51.058;3.734;2022-07-23T03:30:06;16.80;99.90
57843;DHT22;43673;51.058;3.734;2022-07-23T03:32:32;16.80;99.90
57843;DHT22;43673;51.058;3.734;2022-07-23T03:34:58;16.80;99.90
57843;DHT22;43673;51.058;3.734;2022-07-23T03:37:23;16.80;99.90
57843;DHT22;43673;51.058;3.734;2022-07-23T03:39:49;16.90;99.90
57843;DHT22;43673;51.058;3.734;2022-07-23T03:42:15;16.90;99.90
57843;DHT22;43673;51.058;3.734;2022-07-23T03:44:41;16.90;99.90
57843;DHT22;43673;51.058;3.734;2022-07-23T03:47:06;16.80;99.90
57843;DHT22;43673;51.058;3.734;2022-07-23T03:49:33;16.80;99.90
57843;DHT22;43673;51.058;3.734;2022-07-23T03:51:58;16.90;99.90
57843;DHT22;43673;51.058;3.734;2022-07-23T03:54:24;16.90;99.90
57843;DHT22;43673;51.058;3.734;2022-07-23T03:56:50;16.90;99.90
57843;DHT22;43673;51.058;3.734;2022-07-23T03:59:15;16.90;99.90
57843;DHT22;43673;51.058;3.734;2022-07-23T04:01:41;16.80;99.90
57843;DHT22;43673;51.058;3.734;2022-07-23T04:04:07;16.80;99.90
57843;DHT22;43673;51.058;3.734;2022-07-23T04:06:34;16.80;99.90
57843;DHT22;43673;51.058;3.734;2022-07-23T04:09:00;16.70;99.90
57843;DHT22;43673;51.058;3.734;2022-07-23T04:11:26;16.80;99.90
57843;DHT22;43673;51.058;3.734;2022-07-23T04:13:52;16.80;99.90
57843;DHT22;43673;51.058;3.734;2022-07-23T04:16:17;16.80;99.90
57843;DHT22;43673;51.058;3.734;2022-07-23T04:18:43;16.90;99.90
57843;DHT22;43673;51.058;3.734;2022-07-23T04:21:09;16.90;99.90
57843;DHT22;43673;51.058;3.734;2022-07-23T04:23:34;16.90;99.90
57843;DHT22;43673;51.058;3.734;2022-07-23T04:26:00;16.90;99.90
57843;DHT22;43673;51.058;3.734;2022-07-23T04:28:26;17.00;99.90
57843;DHT22;43673;51.058;3.734;2022-07-23T04:30:51;17.10;99.90
57843;DHT22;43673;51.058;3.734;2022-07-23T04:33:17;17.20;99.90
57843;DHT22;43673;51.058;3.734;2022-07-23T04:35:43;17.20;99.90
57843;DHT22;43673;51.058;3.734;2022-07-23T04:38:09;17.30;99.90
57843;DHT22;43673;51.058;3.734;2022-07-23T04:40:34;17.30;99.90
57843;DHT22;43673;51.058;3.734;2022-07-23T04:43:00;17.40;99.90
57843;DHT22;43673;51.058;3.734;2022-07-23T04:45:26;17.30;99.90
57843;DHT22;43673;51.058;3.734;2022-07-23T04:47:51;17.40;99.90
57843;DHT22;43673;51.058;3.734;2022-07-23T04:50:17;17.40;99.90
57843;DHT22;43673;51.058;3.734;2022-07-23T04:52:49;17.40;99.90
57843;DHT22;43673;51.058;3.734;2022-07-23T04:55:15;17.50;99.90
57843;DHT22;43673;51.058;3.734;2022-07-23T04:57:41;17.50;99.90
57843;DHT22;43673;51.058;3.734;2022-07-23T05:00:08;17.60;99.90
57843;DHT22;43673;51.058;3.734;2022-07-23T05:02:33;17.90;99.90
57843;DHT22;43673;51.058;3.734;2022-07-23T05:04:59;18.60;99.90
57843;DHT22;43673;51.058;3.734;2022-07-23T05:07:25;19.20;99.90
57843;DHT22;43673;51.058;3.734;2022-07-23T05:09:51;19.90;99.90
57843;DHT22;43673;51.058;3.734;2022-07-23T05:12:16;20.80;99.90
57843;DHT22;43673;51.058;3.734;2022-07-23T05:14:42;21.60;99.90
57843;DHT22;43673;51.058;3.734;2022-07-23T05:17:08;22.10;99.90
57843;DHT22;43673;51.058;3.734;2022-07-23T05:19:34;22.80;99.90
57843;DHT22;43673;51.058;3.734;2022-07-23T05:22:00;23.40;99.90
57843;DHT22;43673;51.058;3.734;2022-07-23T05:24:25;23.90;99.90
57843;DHT22;43673;51.058;3.734;2022-07-23T05:26:51;24.30;99.90
57843;DHT22;43673;51.058;3.734;2022-07-23T05:29:17;24.40;99.10
57843;DHT22;43673;51.058;3.734;2022-07-23T05:31:42;24.50;98.70
57843;DHT22;43673;51.058;3.734;2022-07-23T05:34:08;24.70;98.20
57843;DHT22;43673;51.058;3.734;2022-07-23T05:36:34;25.40;97.30
57843;DHT22;43673;51.058;3.734;2022-07-23T05:38:59;25.70;96.00
57843;DHT22;43673;51.058;3.734;2022-07-23T05:41:25;26.20;94.80
57843;DHT22;43673;51.058;3.734;2022-07-23T05:43:50;26.30;93.50
57843;DHT22;43673;51.058;3.734;2022-07-23T05:46:19;26.10;93.50
57843;DHT22;43673;51.058;3.734;2022-07-23T05:48:45;25.90;93.30
57843;DHT22;43673;51.058;3.734;2022-07-23T05:51:24;25.80;93.10
57843;DHT22;43673;51.058;3.734;2022-07-23T05:53:51;25.70;93.20
57843;DHT22;43673;51.058;3.734;2022-07-23T05:56:17;25.80;93.00
57843;DHT22;43673;51.058;3.734;2022-07-23T05:58:43;25.80;93.00
57843;DHT22;43673;51.058;3.734;2022-07-23T06:01:09;26.40;92.10
57843;DHT22;43673;51.058;3.734;2022-07-23T06:03:35;26.70;91.40
57843;DHT22;43673;51.058;3.734;2022-07-23T06:06:00;26.30;91.30
57843;DHT22;43673;51.058;3.734;2022-07-23T06:08:26;25.50;92.50
57843;DHT22;43673;51.058;3.734;2022-07-23T06:10:52;24.80;93.40
57843;DHT22;43673;51.058;3.734;2022-07-23T06:13:18;24.40;94.40
57843;DHT22;43673;51.058;3.734;2022-07-23T06:15:44;24.10;94.90
57843;DHT22;43673;51.058;3.734;2022-07-23T06:18:10;24.00;95.60
57843;DHT22;43673;51.058;3.734;2022-07-23T06:20:35;23.80;96.00
57843;DHT22;43673;51.058;3.734;2022-07-23T06:23:03;23.90;96.30
57843;DHT22;43673;51.058;3.734;2022-07-23T06:25:29;24.10;96.00
57843;DHT22;43673;51.058;3.734;2022-07-23T06:27:54;24.40;95.60
57843;DHT22;43673;51.058;3.734;2022-07-23T06:30:20;24.70;95.10
57843;DHT22;43673;51.058;3.734;2022-07-23T06:32:46;25.10;94.30
57843;DHT22;43673;51.058;3.734;2022-07-23T06:35:12;25.50;93.60
57843;DHT22;43673;51.058;3.734;2022-07-23T06:37:37;25.70;93.20
57843;DHT22;43673;51.058;3.734;2022-07-23T06:40:03;25.70;92.90
57843;DHT22;43673;51.058;3.734;2022-07-23T06:42:29;25.40;93.10
57843;DHT22;43673;51.058;3.734;2022-07-23T06:44:55;25.20;93.40
57843;DHT22;43673;51.058;3.734;2022-07-23T06:47:21;24.90;93.60
57843;DHT22;43673;51.058;3.734;2022-07-23T06:49:46;24.90;94.00
57843;DHT22;43673;51.058;3.734;2022-07-23T06:52:12;24.90;93.70
57843;DHT22;43673;51.058;3.734;2022-07-23T06:54:38;24.90;94.10
57843;DHT22;43673;51.058;3.734;2022-07-23T06:57:03;24.50;94.30
57843;DHT22;43673;51.058;3.734;2022-07-23T06:59:29;24.00;95.00
57843;DHT22;43673;51.058;3.734;2022-07-23T07:01:54;24.00;95.80
57843;DHT22;43673;51.058;3.734;2022-07-23T07:04:20;24.70;95.40
57843;DHT22;43673;51.058;3.734;2022-07-23T07:06:46;25.80;93.80
57843;DHT22;43673;51.058;3.734;2022-07-23T07:09:11;27.10;92.20
57843;DHT22;43673;51.058;3.734;2022-07-23T07:11:37;28.40;88.80
57843;DHT22;43673;51.058;3.734;2022-07-23T07:14:03;29.20;84.70
57843;DHT22;43673;51.058;3.734;2022-07-23T07:16:29;29.40;82.20
57843;DHT22;43673;51.058;3.734;2022-07-23T07:18:55;29.70;80.50
57843;DHT22;43673;51.058;3.734;2022-07-23T07:21:21;30.40;78.30
57843;DHT22;43673;51.058;3.734;2022-07-23T07:23:46;31.20;75.20
57843;DHT22;43673;51.058;3.734;2022-07-23T07:26:12;31.90;72.00
57843;DHT22;43673;51.058;3.734;2022-07-23T07:28:38;32.50;68.80
57843;DHT22;43673;51.058;3.734;2022-07-23T07:31:04;33.00;66.40
57843;DHT22;43673;51.058;3.734;2022-07-23T07:33:29;33.60;63.90
57843;DHT22;43673;51.058;3.734;2022-07-23T07:35:55;33.30;62.90
57843;DHT22;43673;51.058;3.734;2022-07-23T07:38:21;33.00;63.10
57843;DHT22;43673;51.058;3.734;2022-07-23T07:40:49;32.90;63.10
57843;DHT22;43673;51.058;3.734;2022-07-23T07:43:14;32.30;63.90
57843;DHT22;43673;51.058;3.734;2022-07-23T07:45:40;32.90;63.10
57843;DHT22;43673;51.058;3.734;2022-07-23T07:48:06;33.00;61.80
57843;DHT22;43673;51.058;3.734;2022-07-23T07:50:32;33.90;59.90
57843;DHT22;43673;51.058;3.734;2022-07-23T07:52:57;34.50;58.50
57843;DHT22;43673;51.058;3.734;2022-07-23T07:55:24;34.40;56.60
57843;DHT22;43673;51.058;3.734;2022-07-23T07:57:50;33.90;56.60
57843;DHT22;43673;51.058;3.734;2022-07-23T08:00:16;33.30;57.40
57843;DHT22;43673;51.058;3.734;2022-07-23T08:02:49;32.60;58.70
57843;DHT22;43673;51.058;3.734;2022-07-23T08:05:22;31.70;59.60
57843;DHT22;43673;51.058;3.734;2022-07-23T08:07:48;31.10;61.70
57843;DHT22;43673;51.058;3.734;2022-07-23T08:10:14;31.10;61.40
57843;DHT22;43673;51.058;3.734;2022-07-23T08:12:45;31.40;61.10
57843;DHT22;43673;51.058;3.734;2022-07-23T08:15:16;31.10;61.20
57843;DHT22;43673;51.058;3.734;2022-07-23T08:17:43;30.60;62.50
57843;DHT22;43673;51.058;3.734;2022-07-23T08:20:10;30.00;63.10
57843;DHT22;43673;51.058;3.734;2022-07-23T08:22:53;29.50;62.70
57843;DHT22;43673;51.058;3.734;2022-07-23T08:25:21;29.60;64.50
57843;DHT22;43673;51.058;3.734;2022-07-23T08:27:48;29.70;64.40
57843;DHT22;43673;51.058;3.734;2022-07-23T08:30:15;29.70;64.60
57843;DHT22;43673;51.058;3.734;2022-07-23T08:35:15;30.00;61.70
57843;DHT22;43673;51.058;3.734;2022-07-23T08:37:41;30.20;60.80
57843;DHT22;43673;51.058;3.734;2022-07-23T08:40:07;30.30;60.70
57843;DHT22;43673;51.058;3.734;2022-07-23T08:42:33;30.30;60.60
57843;DHT22;43673;51.058;3.734;2022-07-23T08:45:02;30.50;59.80
57843;DHT22;43673;51.058;3.734;2022-07-23T08:47:29;30.50;59.70
57843;DHT22;43673;51.058;3.734;2022-07-23T08:49:56;30.40;59.30
57843;DHT22;43673;51.058;3.734;2022-07-23T08:52:24;29.90;60.00
57843;DHT22;43673;51.058;3.734;2022-07-23T08:54:50;29.80;60.80
57843;DHT22;43673;51.058;3.734;2022-07-23T08:57:16;29.70;61.60
57843;DHT22;43673;51.058;3.734;2022-07-23T08:59:42;29.60;61.20
57843;DHT22;43673;51.058;3.734;2022-07-23T09:02:08;29.90;60.30
57843;DHT22;43673;51.058;3.734;2022-07-23T09:04:34;30.00;59.70
57843;DHT22;43673;51.058;3.734;2022-07-23T09:07:01;30.00;60.00
57843;DHT22;43673;51.058;3.734;2022-07-23T09:09:27;31.30;58.40
57843;DHT22;43673;51.058;3.734;2022-07-23T09:12:07;32.20;56.60
57843;DHT22;43673;51.058;3.734;2022-07-23T09:14:44;32.90;55.50
57843;DHT22;43673;51.058;3.734;2022-07-23T09:17:16;33.60;52.00
57843;DHT22;43673;51.058;3.734;2022-07-23T09:19:44;34.00;51.80
57843;DHT22;43673;51.058;3.734;2022-07-23T09:22:36;34.60;50.40
57843;DHT22;43673;51.058;3.734;2022-07-23T09:25:19;35.50;49.00
57843;DHT22;43673;51.058;3.734;2022-07-23T09:27:52;36.20;47.80
57843;DHT22;43673;51.058;3.734;2022-07-23T09:30:20;36.20;46.70
57843;DHT22;43673;51.058;3.734;2022-07-23T09:35:53;35.90;46.20
57843;DHT22;43673;51.058;3.734;2022-07-23T09:38:21;35.30;46.90
57843;DHT22;43673;51.058;3.734;2022-07-23T09:41:08;35.70;45.30
57843;DHT22;43673;51.058;3.734;2022-07-23T09:43:34;34.70;45.20
57843;DHT22;43673;51.058;3.734;2022-07-23T09:46:25;34.00;46.70
57843;DHT22;43673;51.058;3.734;2022-07-23T09:48:53;33.90;47.90
57843;DHT22;43673;51.058;3.734;2022-07-23T09:51:19;34.20;47.70
57843;DHT22;43673;51.058;3.734;2022-07-23T09:53:51;34.20;48.00
57843;DHT22;43673;51.058;3.734;2022-07-23T09:56:17;33.40;48.10
57843;DHT22;43673;51.058;3.734;2022-07-23T09:58:45;33.90;48.50
57843;DHT22;43673;51.058;3.734;2022-07-23T10:01:15;35.00;47.20
57843;DHT22;43673;51.058;3.734;2022-07-23T10:03:42;35.40;47.30
57843;DHT22;43673;51.058;3.734;2022-07-23T10:06:13;36.50;45.80
57843;DHT22;43673;51.058;3.734;2022-07-23T10:08:40;38.00;43.20
57843;DHT22;43673;51.058;3.734;2022-07-23T10:11:08;37.90;42.00
57843;DHT22;43673;51.058;3.734;2022-07-23T10:13:35;37.20;41.90
57843;DHT22;43673;51.058;3.734;2022-07-23T10:16:16;36.60;42.90
57843;DHT22;43673;51.058;3.734;2022-07-23T10:18:42;36.20;43.70
57843;DHT22;43673;51.058;3.734;2022-07-23T10:21:08;35.50;44.00
57843;DHT22;43673;51.058;3.734;2022-07-23T10:35:03;36.00;43.20
57843;DHT22;43673;51.058;3.734;2022-07-23T10:37:36;36.00;43.60
57843;DHT22;43673;51.058;3.734;2022-07-23T10:40:19;35.60;43.30
57843;DHT22;43673;51.058;3.734;2022-07-23T10:42:48;35.40;44.00
57843;DHT22;43673;51.058;3.734;2022-07-23T10:45:32;35.20;43.60
57843;DHT22;43673;51.058;3.734;2022-07-23T10:48:13;34.80;43.90
57843;DHT22;43673;51.058;3.734;2022-07-23T10:50:40;34.10;44.70
57843;DHT22;43673;51.058;3.734;2022-07-23T10:57:57;33.60;45.80
57843;DHT22;43673;51.058;3.734;2022-07-23T11:00:25;33.40;45.40
57843;DHT22;43673;51.058;3.734;2022-07-23T11:02:53;32.90;46.50
57843;DHT22;43673;51.058;3.734;2022-07-23T11:05:24;32.90;46.60
57843;DHT22;43673;51.058;3.734;2022-07-23T11:10:44;32.40;47.60
57843;DHT22;43673;51.058;3.734;2022-07-23T11:24:12;32.00;47.60
57843;DHT22;43673;51.058;3.734;2022-07-23T11:31:56;32.40;47.70
57843;DHT22;43673;51.058;3.734;2022-07-23T11:37:04;33.40;46.80
57843;DHT22;43673;51.058;3.734;2022-07-23T11:39:30;33.20;45.90
57843;DHT22;43673;51.058;3.734;2022-07-23T11:41:57;32.40;46.60
57843;DHT22;43673;51.058;3.734;2022-07-23T11:44:33;31.20;49.10
57843;DHT22;43673;51.058;3.734;2022-07-23T11:49:28;30.10;50.80
57843;DHT22;43673;51.058;3.734;2022-07-23T11:52:07;29.80;51.30
57843;DHT22;43673;51.058;3.734;2022-07-23T11:54:36;29.50;50.80
57843;DHT22;43673;51.058;3.734;2022-07-23T11:57:02;29.50;51.50
57843;DHT22;43673;51.058;3.734;2022-07-23T11:59:31;29.30;51.50
57843;DHT22;43673;51.058;3.734;2022-07-23T12:02:02;29.10;51.20
57843;DHT22;43673;51.058;3.734;2022-07-23T12:07:08;28.90;51.50
57843;DHT22;43673;51.058;3.734;2022-07-23T12:09:47;28.90;51.80
57843;DHT22;43673;51.058;3.734;2022-07-23T12:12:13;28.90;51.70
57843;DHT22;43673;51.058;3.734;2022-07-23T12:14:48;28.90;53.30
57843;DHT22;43673;51.058;3.734;2022-07-23T12:17:14;29.00;52.60
57843;DHT22;43673;51.058;3.734;2022-07-23T12:19:40;29.10;52.70
57843;DHT22;43673;51.058;3.734;2022-07-23T12:22:05;29.10;52.70
57843;DHT22;43673;51.058;3.734;2022-07-23T12:24:33;29.00;53.00
57843;DHT22;43673;51.058;3.734;2022-07-23T12:27:20;29.00;52.90
57843;DHT22;43673;51.058;3.734;2022-07-23T12:29:46;29.10;53.40
57843;DHT22;43673;51.058;3.734;2022-07-23T12:32:26;29.10;53.50
57843;DHT22;43673;51.058;3.734;2022-07-23T12:35:07;28.90;53.10
57843;DHT22;43673;51.058;3.734;2022-07-23T12:37:36;28.90;53.40
57843;DHT22;43673;51.058;3.734;2022-07-23T12:40:28;29.20;53.20
57843;DHT22;43673;51.058;3.734;2022-07-23T12:43:00;29.40;52.40
57843;DHT22;43673;51.058;3.734;2022-07-23T12:45:28;29.40;52.10
57843;DHT22;43673;51.058;3.734;2022-07-23T12:48:05;29.20;52.30
57843;DHT22;43673;51.058;3.734;2022-07-23T12:50:50;29.30;53.10
57843;DHT22;43673;51.058;3.734;2022-07-23T12:55:47;29.70;52.60
57843;DHT22;43673;51.058;3.734;2022-07-23T12:58:16;29.60;53.10
57843;DHT22;43673;51.058;3.734;2022-07-23T13:01:01;29.50;53.40
57843;DHT22;43673;51.058;3.734;2022-07-23T13:03:29;29.70;53.40
57843;DHT22;43673;51.058;3.734;2022-07-23T13:05:56;29.90;53.00
57843;DHT22;43673;51.058;3.734;2022-07-23T13:08:22;29.80;52.60
57843;DHT22;43673;51.058;3.734;2022-07-23T13:10:48;29.80;53.10
57843;DHT22;43673;51.058;3.734;2022-07-23T13:13:19;29.90;53.20
57843;DHT22;43673;51.058;3.734;2022-07-23T13:15:44;30.10;52.90
57843;DHT22;43673;51.058;3.734;2022-07-23T13:18:10;30.20;52.20
57843;DHT22;43673;51.058;3.734;2022-07-23T13:20:36;30.10;52.60
57843;DHT22;43673;51.058;3.734;2022-07-23T13:23:05;30.10;52.50
57843;DHT22;43673;51.058;3.734;2022-07-23T13:25:30;30.20;52.40
57843;DHT22;43673;51.058;3.734;2022-07-23T13:27:56;30.40;52.30
57843;DHT22;43673;51.058;3.734;2022-07-23T13:30:22;30.60;51.70
57843;DHT22;43673;51.058;3.734;2022-07-23T13:32:48;30.70;51.90
57843;DHT22;43673;51.058;3.734;2022-07-23T13:35:14;30.50;52.00
57843;DHT22;43673;51.058;3.734;2022-07-23T13:37:40;30.20;52.80
57843;DHT22;43673;51.058;3.734;2022-07-23T13:40:06;29.80;53.30
57843;DHT22;43673;51.058;3.734;2022-07-23T13:42:32;29.60;53.80
57843;DHT22;43673;51.058;3.734;2022-07-23T13:44:57;29.40;53.50
57843;DHT22;43673;51.058;3.734;2022-07-23T13:47:26;29.50;53.90
57843;DHT22;43673;51.058;3.734;2022-07-23T13:49:52;29.70;53.70
57843;DHT22;43673;51.058;3.734;2022-07-23T13:52:18;29.90;53.90
57843;DHT22;43673;51.058;3.734;2022-07-23T13:54:44;29.70;53.50
57843;DHT22;43673;51.058;3.734;2022-07-23T13:57:10;29.80;53.60
57843;DHT22;43673;51.058;3.734;2022-07-23T13:59:36;29.90;53.50
57843;DHT22;43673;51.058;3.734;2022-07-23T14:02:03;29.80;53.50
57843;DHT22;43673;51.058;3.734;2022-07-23T14:04:29;29.60;53.90
57843;DHT22;43673;51.058;3.734;2022-07-23T14:06:54;29.50;54.20
57843;DHT22;43673;51.058;3.734;2022-07-23T14:09:21;29.60;53.90
57843;DHT22;43673;51.058;3.734;2022-07-23T14:11:46;29.70;53.70
57843;DHT22;43673;51.058;3.734;2022-07-23T14:14:12;29.60;54.00
57843;DHT22;43673;51.058;3.734;2022-07-23T14:16:38;29.80;53.90
57843;DHT22;43673;51.058;3.734;2022-07-23T14:19:03;29.70;53.70
57843;DHT22;43673;51.058;3.734;2022-07-23T14:21:29;29.70;54.10
57843;DHT22;43673;51.058;3.734;2022-07-23T14:23:54;29.80;54.10
57843;DHT22;43673;51.058;3.734;2022-07-23T14:26:20;29.70;54.20
57843;DHT22;43673;51.058;3.734;2022-07-23T14:28:46;29.70;54.40
57843;DHT22;43673;51.058;3.734;2022-07-23T14:31:11;29.40;55.60
57843;DHT22;43673;51.058;3.734;2022-07-23T14:33:37;29.50;54.60
57843;DHT22;43673;51.058;3.734;2022-07-23T14:36:03;29.90;54.10
57843;DHT22;43673;51.058;3.734;2022-07-23T14:38:29;30.30;53.70
57843;DHT22;43673;51.058;3.734;2022-07-23T14:43:54;30.50;52.90
57843;DHT22;43673;51.058;3.734;2022-07-23T14:46:19;30.60;52.80
57843;DHT22;43673;51.058;3.734;2022-07-23T14:48:45;31.00;52.40
57843;DHT22;43673;51.058;3.734;2022-07-23T14:51:11;31.30;51.70
57843;DHT22;43673;51.058;3.734;2022-07-23T14:53:36;31.40;51.70
57843;DHT22;43673;51.058;3.734;2022-07-23T14:56:02;31.30;51.20
57843;DHT22;43673;51.058;3.734;2022-07-23T14:58:29;31.50;51.50
57843;DHT22;43673;51.058;3.734;2022-07-23T15:00:55;31.40;51.60
57843;DHT22;43673;51.058;3.734;2022-07-23T15:03:26;31.50;51.70
57843;DHT22;43673;51.058;3.734;2022-07-23T15:06:01;31.60;51.40
57843;DHT22;43673;51.058;3.734;2022-07-23T15:08:29;31.70;51.00
57843;DHT22;43673;51.058;3.734;2022-07-23T15:10:57;31.50;51.40
57843;DHT22;43673;51.058;3.734;2022-07-23T15:13:31;31.20;51.80
57843;DHT22;43673;51.058;3.734;2022-07-23T15:15:59;31.00;52.10
57843;DHT22;43673;51.058;3.734;2022-07-23T15:18:25;30.90;52.10
57843;DHT22;43673;51.058;3.734;2022-07-23T15:20:51;30.70;52.90
57843;DHT22;43673;51.058;3.734;2022-07-23T15:23:16;30.50;53.60
57843;DHT22;43673;51.058;3.734;2022-07-23T15:25:42;30.50;53.70
57843;DHT22;43673;51.058;3.734;2022-07-23T15:28:11;30.20;53.60
57843;DHT22;43673;51.058;3.734;2022-07-23T15:30:36;30.00;54.40
57843;DHT22;43673;51.058;3.734;2022-07-23T15:33:02;29.80;54.60
57843;DHT22;43673;51.058;3.734;2022-07-23T15:35:49;29.80;55.00
57843;DHT22;43673;51.058;3.734;2022-07-23T15:38:21;29.90;54.60
57843;DHT22;43673;51.058;3.734;2022-07-23T15:40:50;30.00;54.20
57843;DHT22;43673;51.058;3.734;2022-07-23T15:43:16;30.00;54.90
57843;DHT22;43673;51.058;3.734;2022-07-23T15:45:41;30.10;54.40
57843;DHT22;43673;51.058;3.734;2022-07-23T15:48:07;30.30;54.30
57843;DHT22;43673;51.058;3.734;2022-07-23T15:50:33;30.20;54.40
57843;DHT22;43673;51.058;3.734;2022-07-23T15:52:59;30.20;54.30
57843;DHT22;43673;51.058;3.734;2022-07-23T15:55:24;30.00;54.50
57843;DHT22;43673;51.058;3.734;2022-07-23T15:57:51;30.00;54.40
57843;DHT22;43673;51.058;3.734;2022-07-23T16:00:17;30.00;54.40
57843;DHT22;43673;51.058;3.734;2022-07-23T16:02:43;30.20;54.00
57843;DHT22;43673;51.058;3.734;2022-07-23T16:05:08;30.20;53.90
57843;DHT22;43673;51.058;3.734;2022-07-23T16:07:34;30.20;54.10
57843;DHT22;43673;51.058;3.734;2022-07-23T16:10:04;30.20;54.40
57843;DHT22;43673;51.058;3.734;2022-07-23T16:12:30;30.20;54.30
57843;DHT22;43673;51.058;3.734;2022-07-23T16:14:56;30.10;54.30
57843;DHT22;43673;51.058;3.734;2022-07-23T16:17:22;30.30;54.10
57843;DHT22;43673;51.058;3.734;2022-07-23T16:19:48;30.20;54.10
57843;DHT22;43673;51.058;3.734;2022-07-23T16:22:13;30.20;54.00
57843;DHT22;43673;51.058;3.734;2022-07-23T16:24:42;30.40;53.60